Time;durP1;ratioP1;P1;durP2;ratioP2;P2;SDS_P1;SDS_P2;PMS_P1;PMS_P2;Temp;Humidity;BMP_temperature;BMP_pressure;BME280_temperature;BME280_humidity;BME280_pressure;Samples;Min_cycle;Max_cycle;Signal;HPM_P1;HPM_P2
2023/08/20 00:01:24;;;;;;;7.00;5.40;;;25.70;98.70;;;;;;4968458;28;20958;-75
2023/08/20 00:03:51;;;;;;;5.43;4.93;;;25.60;98.70;;;;;;4984392;28;21294;-75
2023/08/20 00:06:18;;;;;;;5.67;5.17;;;25.60;98.70;;;;;;4986392;28;20471;-74
2023/08/20 00:08:45;;;;;;;5.10;4.67;;;25.60;98.70;;;;;;4985952;28;20968;-74
2023/08/20 00:11:12;;;;;;;5.40;5.00;;;25.60;98.70;;;;;;4984528;28;20421;-75
2023/08/20 00:13:42;;;;;;;5.53;5.10;;;25.60;98.70;;;;;;4988861;28;20506;-74
2023/08/20 00:16:09;;;;;;;4.83;4.53;;;25.60;98.70;;;;;;5005200;28;20794;-74
2023/08/20 00:18:38;;;;;;;8.00;5.83;;;25.50;98.60;;;;;;5003412;28;20448;-74
2023/08/20 00:21:07;;;;;;;6.43;5.03;;;25.50;98.60;;;;;;5003042;28;20420;-75
2023/08/20 00:23:34;;;;;;;6.20;5.70;;;25.50;98.60;;;;;;5004869;28;20547;-74
2023/08/20 00:26:03;;;;;;;5.53;5.10;;;25.50;98.60;;;;;;5003937;28;20780;-74
2023/08/20 00:28:34;;;;;;;5.30;4.90;;;25.50;98.60;;;;;;5002298;28;21103;-75
2023/08/20 00:31:02;;;;;;;6.50;5.90;;;25.50;98.60;;;;;;4965628;28;20520;-74
2023/08/20 00:33:32;;;;;;;7.67;5.23;;;25.50;98.60;;;;;;4979184;28;20464;-75
2023/08/20 00:36:00;;;;;;;5.50;4.90;;;25.50;98.60;;;;;;4992184;28;20937;-74
2023/08/20 00:38:26;;;;;;;6.63;5.13;;;25.40;98.60;;;;;;4994749;28;20460;-73
2023/08/20 00:40:53;;;;;;;5.70;4.77;;;25.40;98.60;;;;;;4983721;28;20527;-74
2023/08/20 00:43:20;;;;;;;5.23;4.83;;;25.40;98.60;;;;;;4991403;28;20472;-75
2023/08/20 00:45:46;;;;;;;5.87;4.70;;;25.40;98.60;;;;;;5003015;28;20429;-74
2023/08/20 00:48:13;;;;;;;6.00;5.50;;;25.40;98.60;;;;;;5001849;28;20438;-75
2023/08/20 00:50:40;;;;;;;7.27;4.77;;;25.40;98.60;;;;;;5004437;28;20605;-75
2023/08/20 00:53:09;;;;;;;5.50;5.10;;;25.40;98.60;;;;;;5003025;28;20468;-75
2023/08/20 00:55:36;;;;;;;5.83;5.37;;;25.40;98.60;;;;;;5003840;28;20456;-74
2023/08/20 00:58:02;;;;;;;4.70;4.30;;;25.40;98.60;;;;;;5003094;28;20455;-74
2023/08/20 01:00:31;;;;;;;5.90;5.40;;;25.40;98.60;;;;;;5002613;28;20747;-75
2023/08/20 01:02:57;;;;;;;5.87;5.27;;;25.30;98.60;;;;;;5002045;28;20482;-74
2023/08/20 01:05:24;;;;;;;5.50;5.00;;;25.30;98.60;;;;;;4970433;28;20433;-74
2023/08/20 01:08:29;;;;;;;5.20;4.70;;;25.30;98.60;;;;;;4998092;28;20493;-75
2023/08/20 01:11:05;;;;;;;6.27;5.27;;;25.30;98.60;;;;;;4967014;28;20417;-75
2023/08/20 01:13:33;;;;;;;5.50;5.10;;;25.30;98.60;;;;;;4979795;28;20447;-74
2023/08/20 01:16:02;;;;;;;6.63;6.03;;;25.30;98.60;;;;;;4963554;28;20814;-74
2023/08/20 01:18:30;;;;;;;8.60;6.00;;;25.20;98.50;;;;;;4971440;28;20453;-75
2023/08/20 01:21:03;;;;;;;4.80;4.40;;;25.20;98.50;;;;;;4951037;28;20547;-74
2023/08/20 01:23:48;;;;;;;5.97;5.47;;;25.20;98.50;;;;;;4958782;28;20596;-75
2023/08/20 01:26:45;;;;;;;5.50;5.10;;;25.20;98.60;;;;;;5002242;28;20453;-74
2023/08/20 01:29:12;;;;;;;5.27;4.87;;;25.20;98.50;;;;;;5002531;28;20803;-74
2023/08/20 01:31:42;;;;;;;5.57;5.07;;;25.20;98.50;;;;;;5002283;28;20424;-74
2023/08/20 01:34:13;;;;;;;6.27;5.73;;;25.20;98.50;;;;;;4988448;28;20445;-74
2023/08/20 01:36:39;;;;;;;5.90;4.70;;;25.20;98.60;;;;;;4982664;28;20491;-75
2023/08/20 01:39:05;;;;;;;5.47;4.97;;;25.20;98.50;;;;;;4984140;28;20441;-74
2023/08/20 01:41:31;;;;;;;5.43;5.03;;;25.20;98.50;;;;;;4966621;28;20202;-75
2023/08/20 01:44:02;;;;;;;10.33;5.33;;;25.10;98.50;;;;;;4982300;28;20531;-75
2023/08/20 01:46:31;;;;;;;6.77;5.10;;;25.10;98.50;;;;;;4992470;28;21284;-74
2023/08/20 01:48:57;;;;;;;6.13;5.63;;;25.10;98.50;;;;;;4985097;28;20430;-75
2023/08/20 01:51:25;;;;;;;5.80;4.83;;;25.10;98.50;;;;;;5001222;28;20419;-74
2023/08/20 01:53:51;;;;;;;5.80;5.30;;;25.10;98.50;;;;;;4954986;28;20902;-75
2023/08/20 01:56:17;;;;;;;5.47;4.97;;;25.10;98.50;;;;;;4990963;28;20433;-75
2023/08/20 01:58:43;;;;;;;5.40;5.00;;;25.10;98.50;;;;;;4981125;28;20426;-75
2023/08/20 02:01:17;;;;;;;5.40;5.00;;;25.10;98.50;;;;;;4981326;28;20447;-75
2023/08/20 02:03:48;;;;;;;5.60;5.20;;;25.10;98.50;;;;;;4981944;28;20491;-75
2023/08/20 02:06:14;;;;;;;5.43;5.03;;;25.10;98.50;;;;;;4982864;28;20889;-75
2023/08/20 02:08:44;;;;;;;5.73;5.10;;;25.00;98.50;;;;;;4982672;28;20449;-75
2023/08/20 02:11:10;;;;;;;5.67;5.17;;;25.00;98.50;;;;;;4983954;28;20774;-75
2023/08/20 02:13:39;;;;;;;5.30;4.80;;;25.00;98.50;;;;;;4982132;28;20707;-74
2023/08/20 02:16:09;;;;;;;7.43;4.97;;;25.00;98.50;;;;;;4982053;28;20797;-74
2023/08/20 02:18:38;;;;;;;5.60;5.20;;;25.00;98.50;;;;;;4966331;28;20444;-74
2023/08/20 02:21:04;;;;;;;6.53;5.60;;;25.00;98.50;;;;;;4981846;28;20428;-74
2023/08/20 02:23:32;;;;;;;8.73;5.53;;;25.00;98.50;;;;;;4981901;28;20476;-74
2023/08/20 02:26:02;;;;;;;5.30;4.90;;;25.00;98.50;;;;;;4983953;28;20460;-74
2023/08/20 02:28:30;;;;;;;5.67;5.27;;;25.00;98.50;;;;;;5022264;23;20505;-71
2023/08/20 02:30:57;;;;;;;5.63;5.13;;;24.90;98.50;;;;;;4972012;28;20419;-71
2023/08/20 02:33:26;;;;;;;5.73;5.23;;;24.90;98.50;;;;;;5007556;28;20446;-69
2023/08/20 02:35:54;;;;;;;6.00;4.93;;;24.90;98.50;;;;;;4993961;28;20951;-71
2023/08/20 02:38:22;;;;;;;4.67;4.27;;;24.90;98.50;;;;;;4999581;28;20459;-71
2023/08/20 02:40:48;;;;;;;5.30;4.83;;;24.90;98.50;;;;;;5004113;28;20481;-72
2023/08/20 02:43:18;;;;;;;5.10;4.70;;;24.90;98.50;;;;;;5022567;28;20484;-71
2023/08/20 02:45:47;;;;;;;5.50;5.00;;;24.90;98.50;;;;;;4989203;28;20537;-69
2023/08/20 02:48:13;;;;;;;5.03;4.63;;;24.90;98.50;;;;;;4987924;28;20451;-71
2023/08/20 02:50:40;;;;;;;5.90;5.30;;;24.90;98.50;;;;;;5023117;28;20473;-71
2023/08/20 02:53:06;;;;;;;5.80;5.00;;;24.90;98.50;;;;;;4988801;28;20447;-70
2023/08/20 02:55:35;;;;;;;5.30;4.80;;;24.90;98.60;;;;;;5005090;28;20424;-70
2023/08/20 02:58:04;;;;;;;5.20;4.80;;;24.80;98.50;;;;;;5005559;28;20423;-69
2023/08/20 03:00:31;;;;;;;6.30;5.53;;;24.80;98.50;;;;;;4988863;28;20951;-69
2023/08/20 03:02:58;;;;;;;5.60;5.20;;;24.80;98.50;;;;;;4988181;28;20561;-69
2023/08/20 03:05:26;;;;;;;5.70;5.20;;;24.80;98.50;;;;;;5004911;28;20512;-69
2023/08/20 03:07:57;;;;;;;5.33;4.90;;;24.80;98.50;;;;;;4985807;28;21092;-71
2023/08/20 03:10:23;;;;;;;5.60;5.07;;;24.80;98.50;;;;;;4973843;28;20440;-71
2023/08/20 03:12:51;;;;;;;5.53;5.03;;;24.80;98.50;;;;;;5008643;28;20443;-71
2023/08/20 03:15:20;;;;;;;5.77;5.07;;;24.80;98.50;;;;;;4992308;28;21003;-69
2023/08/20 03:17:49;;;;;;;5.63;5.03;;;24.80;98.50;;;;;;4998466;28;20450;-71
2023/08/20 03:20:15;;;;;;;5.40;5.00;;;24.80;98.50;;;;;;4990713;28;20475;-71
2023/08/20 03:22:43;;;;;;;6.07;5.50;;;24.80;98.50;;;;;;4989246;28;20575;-70
2023/08/20 03:25:09;;;;;;;5.10;4.70;;;24.70;98.50;;;;;;4992316;28;20469;-70
2023/08/20 03:27:38;;;;;;;5.70;5.27;;;24.70;98.50;;;;;;4995208;28;20465;-70
2023/08/20 03:30:05;;;;;;;6.27;5.57;;;24.70;98.50;;;;;;5011312;28;20491;-70
2023/08/20 03:32:34;;;;;;;6.20;5.20;;;24.70;98.50;;;;;;4995325;28;20449;-70
2023/08/20 03:35:03;;;;;;;5.60;4.90;;;24.70;98.40;;;;;;4995212;28;20444;-70
2023/08/20 03:37:31;;;;;;;5.80;5.33;;;24.70;98.40;;;;;;5026395;28;21252;-70
2023/08/20 03:39:57;;;;;;;5.70;5.20;;;24.70;98.40;;;;;;5008715;28;20404;-70
2023/08/20 03:42:23;;;;;;;6.23;5.63;;;24.70;98.40;;;;;;5008847;28;20492;-70
2023/08/20 03:44:51;;;;;;;5.93;5.33;;;24.70;98.50;;;;;;4993640;28;20485;-70
2023/08/20 03:47:20;;;;;;;5.50;5.10;;;24.70;98.40;;;;;;5009482;28;20471;-70
2023/08/20 03:49:48;;;;;;;5.80;5.40;;;24.70;98.50;;;;;;5013517;28;21051;-70
2023/08/20 03:52:14;;;;;;;6.30;5.70;;;24.60;98.40;;;;;;4997071;28;20422;-70
2023/08/20 03:54:46;;;;;;;6.20;5.60;;;24.60;98.40;;;;;;5012241;28;20959;-69
2023/08/20 03:57:14;;;;;;;5.87;5.40;;;24.60;98.40;;;;;;5027420;28;20554;-69
2023/08/20 03:59:47;;;;;;;5.97;5.57;;;24.60;98.40;;;;;;5044921;28;20508;-69
2023/08/20 04:02:14;;;;;;;6.20;5.40;;;24.60;98.40;;;;;;4993088;28;20435;-69
2023/08/20 04:04:41;;;;;;;6.53;6.00;;;24.60;98.40;;;;;;5006888;28;20431;-69
2023/08/20 04:07:11;;;;;;;5.43;4.93;;;24.60;98.40;;;;;;5007569;28;20443;-68
2023/08/20 04:09:38;;;;;;;8.63;5.47;;;24.60;98.40;;;;;;4990935;28;20703;-68
2023/08/20 04:12:07;;;;;;;5.73;5.23;;;24.50;98.40;;;;;;5024476;28;20400;-69
2023/08/20 04:14:33;;;;;;;6.30;5.70;;;24.60;98.50;;;;;;4990623;28;20530;-69
2023/08/20 04:17:01;;;;;;;6.30;5.70;;;24.50;98.40;;;;;;5007038;28;20423;-69
2023/08/20 04:19:27;;;;;;;7.20;5.00;;;24.50;98.40;;;;;;4990314;28;20457;-68
2023/08/20 04:21:58;;;;;;;6.50;5.90;;;24.50;98.40;;;;;;4990190;28;20816;-69
2023/08/20 04:24:24;;;;;;;5.63;5.17;;;24.50;98.40;;;;;;5024510;28;20964;-69
2023/08/20 04:26:54;;;;;;;7.83;5.80;;;24.50;98.40;;;;;;5007027;28;20453;-69
2023/08/20 04:29:27;;;;;;;5.90;5.27;;;24.50;98.40;;;;;;4991705;28;20300;-69
2023/08/20 04:31:53;;;;;;;7.00;5.67;;;24.50;98.50;;;;;;5005177;28;20458;-69
2023/08/20 04:34:21;;;;;;;6.17;5.67;;;24.50;98.50;;;;;;5005470;28;20441;-69
2023/08/20 04:36:51;;;;;;;6.00;5.43;;;24.50;98.50;;;;;;5021749;28;20496;-68
2023/08/20 04:39:18;;;;;;;6.77;5.10;;;24.40;98.40;;;;;;4990485;28;21200;-68
2023/08/20 04:41:51;;;;;;;6.10;5.57;;;24.40;98.40;;;;;;4991472;28;20426;-69
2023/08/20 04:44:21;;;;;;;5.80;5.20;;;24.40;98.40;;;;;;5005684;28;20860;-68
2023/08/20 04:46:53;;;;;;;5.63;5.17;;;24.50;98.50;;;;;;5004798;28;20902;-69
2023/08/20 04:49:19;;;;;;;5.53;5.00;;;24.40;98.50;;;;;;5008449;28;20823;-69
2023/08/20 04:51:45;;;;;;;6.30;5.73;;;24.40;98.50;;;;;;5008183;28;20571;-69
2023/08/20 04:54:11;;;;;;;6.10;5.50;;;24.40;98.50;;;;;;5024861;28;20971;-69
2023/08/20 04:56:37;;;;;;;6.37;5.80;;;24.40;98.40;;;;;;5026216;28;20479;-69
2023/08/20 04:59:05;;;;;;;6.30;5.80;;;24.40;98.50;;;;;;5008981;28;21006;-69
2023/08/20 05:01:50;;;;;;;5.27;4.87;;;24.40;98.50;;;;;;5023536;28;20500;-69
2023/08/20 05:04:22;;;;;;;6.20;5.60;;;24.40;98.50;;;;;;4988201;28;20467;-69
2023/08/20 05:06:51;;;;;;;6.20;5.60;;;24.40;98.50;;;;;;5004135;28;20446;-69
2023/08/20 05:09:20;;;;;;;5.73;5.33;;;24.40;98.50;;;;;;5005004;28;20446;-70
2023/08/20 05:11:51;;;;;;;5.60;5.20;;;24.30;98.40;;;;;;4972661;28;20443;-69
2023/08/20 05:14:17;;;;;;;5.87;5.37;;;24.30;98.40;;;;;;5004865;28;20542;-69
2023/08/20 05:16:46;;;;;;;5.30;4.90;;;24.30;98.40;;;;;;5022797;28;20559;-70
2023/08/20 05:19:12;;;;;;;5.77;5.27;;;24.30;98.40;;;;;;5004342;28;20400;-69
2023/08/20 05:21:39;;;;;;;6.13;5.57;;;24.30;98.50;;;;;;4988209;28;20961;-69
2023/08/20 05:24:08;;;;;;;6.60;4.80;;;24.30;98.40;;;;;;5003999;28;20461;-69
2023/08/20 05:26:35;;;;;;;6.03;5.53;;;24.30;98.40;;;;;;5006244;23;20496;-69
2023/08/20 05:29:04;;;;;;;5.47;5.07;;;24.30;98.40;;;;;;4984552;28;20425;-69
2023/08/20 05:31:30;;;;;;;5.90;5.40;;;24.20;98.40;;;;;;5014235;28;21095;-69
2023/08/20 05:34:00;;;;;;;6.00;5.40;;;24.20;98.40;;;;;;4985169;28;20440;-69
2023/08/20 05:36:28;;;;;;;5.40;4.90;;;24.20;98.40;;;;;;4985913;28;20452;-69
2023/08/20 05:39:02;;;;;;;5.50;5.00;;;24.20;98.40;;;;;;4970877;28;21260;-69
2023/08/20 05:41:28;;;;;;;5.83;5.30;;;24.20;98.40;;;;;;4969816;28;20936;-69
2023/08/20 05:43:58;;;;;;;7.00;5.23;;;24.20;98.40;;;;;;4985471;28;20554;-69
2023/08/20 05:46:25;;;;;;;5.90;4.37;;;24.20;98.40;;;;;;5002108;28;21188;-69
2023/08/20 05:48:56;;;;;;;5.50;4.97;;;24.20;98.40;;;;;;4986067;28;20872;-69
2023/08/20 05:51:23;;;;;;;5.03;4.63;;;24.20;98.50;;;;;;5002198;28;20487;-69
2023/08/20 05:53:51;;;;;;;5.40;4.60;;;24.20;98.40;;;;;;4985724;28;21147;-69
2023/08/20 05:56:17;;;;;;;4.90;4.50;;;24.20;98.40;;;;;;5002495;28;20952;-69
2023/08/20 05:58:43;;;;;;;5.23;4.83;;;24.20;98.50;;;;;;4985990;28;20460;-69
2023/08/20 06:01:16;;;;;;;5.40;4.90;;;24.20;98.50;;;;;;5002101;28;21026;-68
2023/08/20 06:03:42;;;;;;;5.20;4.80;;;24.20;98.50;;;;;;5001799;28;20476;-68
2023/08/20 06:06:10;;;;;;;5.17;4.70;;;24.20;98.50;;;;;;5001967;28;20427;-68
2023/08/20 06:08:36;;;;;;;5.63;5.13;;;24.10;98.40;;;;;;5000605;28;20439;-68
2023/08/20 06:11:02;;;;;;;5.23;4.73;;;24.20;98.50;;;;;;5004246;28;20447;-69
2023/08/20 06:13:30;;;;;;;5.07;4.67;;;24.10;98.40;;;;;;4999514;28;20554;-69
2023/08/20 06:15:58;;;;;;;5.87;5.40;;;24.20;98.50;;;;;;4983456;28;20466;-68
2023/08/20 06:18:24;;;;;;;5.27;4.87;;;24.10;98.40;;;;;;4999907;28;20416;-69
2023/08/20 06:20:50;;;;;;;6.50;4.87;;;24.10;98.40;;;;;;5000944;28;20412;-69
2023/08/20 06:23:18;;;;;;;6.20;5.23;;;24.10;98.40;;;;;;4999074;28;20488;-68
2023/08/20 06:25:44;;;;;;;6.33;5.73;;;24.10;98.40;;;;;;4983170;28;20447;-68
2023/08/20 06:28:10;;;;;;;6.20;5.60;;;24.10;98.50;;;;;;4999762;28;21309;-68
2023/08/20 06:30:36;;;;;;;5.70;5.20;;;24.10;98.50;;;;;;5001756;28;20401;-69
2023/08/20 06:33:05;;;;;;;5.67;5.27;;;24.10;98.50;;;;;;4998915;28;20483;-68
2023/08/20 06:35:37;;;;;;;6.03;5.30;;;24.10;98.50;;;;;;4999850;28;20448;-68
2023/08/20 06:38:03;;;;;;;5.97;5.47;;;24.10;98.50;;;;;;4991648;28;20567;-68
2023/08/20 06:40:31;;;;;;;5.07;4.70;;;24.10;98.50;;;;;;5000930;28;20943;-68
2023/08/20 06:42:57;;;;;;;6.30;5.27;;;24.10;98.50;;;;;;5000102;28;20633;-68
2023/08/20 06:45:23;;;;;;;6.13;5.53;;;24.10;98.50;;;;;;5000837;28;20420;-68
2023/08/20 06:47:49;;;;;;;5.93;5.33;;;24.10;98.50;;;;;;4986935;28;20431;-68
2023/08/20 06:50:15;;;;;;;6.20;5.60;;;24.10;98.50;;;;;;5004427;28;20205;-69
2023/08/20 06:52:42;;;;;;;6.33;5.73;;;24.10;98.50;;;;;;5004118;28;20448;-68
2023/08/20 06:55:08;;;;;;;5.57;5.07;;;24.10;98.50;;;;;;5004406;28;20409;-68
2023/08/20 06:57:41;;;;;;;5.90;5.33;;;24.10;98.50;;;;;;5003160;28;20465;-68
2023/08/20 07:00:08;;;;;;;6.17;5.67;;;24.10;98.50;;;;;;5003377;28;20499;-68
2023/08/20 07:02:34;;;;;;;5.90;5.40;;;24.10;98.60;;;;;;5002661;28;20486;-68
2023/08/20 07:04:59;;;;;;;6.23;5.80;;;24.10;98.60;;;;;;5002496;28;20427;-68
2023/08/20 07:07:28;;;;;;;6.40;5.90;;;24.10;98.60;;;;;;4984798;28;20444;-68
2023/08/20 07:09:54;;;;;;;7.70;5.90;;;24.10;98.70;;;;;;5004280;28;20440;-68
2023/08/20 07:12:22;;;;;;;6.50;6.00;;;24.10;98.80;;;;;;5004236;28;20427;-69
2023/08/20 07:14:48;;;;;;;5.33;4.93;;;24.10;98.90;;;;;;4986536;28;20432;-68
2023/08/20 07:17:16;;;;;;;5.90;5.40;;;24.10;98.90;;;;;;5003131;28;20174;-68
2023/08/20 07:19:45;;;;;;;6.17;5.63;;;24.10;99.10;;;;;;4986743;28;20435;-69
2023/08/20 07:22:13;;;;;;;6.47;5.93;;;24.10;99.20;;;;;;5002453;28;20448;-68
2023/08/20 07:24:42;;;;;;;6.10;5.50;;;24.10;99.10;;;;;;5002501;28;20551;-68
2023/08/20 07:27:15;;;;;;;6.70;6.10;;;24.10;99.10;;;;;;5002558;28;20538;-68
2023/08/20 07:29:41;;;;;;;7.10;6.47;;;24.10;99.30;;;;;;5002386;28;20435;-68
2023/08/20 07:32:07;;;;;;;7.10;6.40;;;24.10;99.30;;;;;;4986499;28;20412;-68
2023/08/20 07:34:36;;;;;;;5.40;5.00;;;24.10;99.30;;;;;;5002234;28;20456;-68
2023/08/20 07:37:06;;;;;;;9.43;7.83;;;24.10;99.00;;;;;;4988922;28;20427;-69
2023/08/20 07:39:37;;;;;;;7.63;6.50;;;24.10;99.30;;;;;;4998065;28;21220;-68
2023/08/20 07:42:03;;;;;;;6.50;5.90;;;24.10;99.60;;;;;;5001627;28;21054;-69
2023/08/20 07:44:31;;;;;;;6.90;6.20;;;24.10;99.70;;;;;;5003288;28;21285;-68
2023/08/20 07:46:57;;;;;;;7.50;6.90;;;24.10;99.70;;;;;;5001542;28;20483;-72
2023/08/20 07:49:23;;;;;;;8.97;8.20;;;24.10;99.70;;;;;;4986225;28;20432;-70
2023/08/20 07:51:52;;;;;;;8.20;7.50;;;24.20;99.90;;;;;;5002335;28;20571;-71
2023/08/20 07:54:20;;;;;;;8.40;7.60;;;24.20;99.90;;;;;;5002047;28;21218;-71
2023/08/20 07:56:49;;;;;;;15.63;11.83;;;24.20;99.90;;;;;;5002802;28;20519;-71
2023/08/20 07:59:17;;;;;;;11.00;9.90;;;24.20;99.90;;;;;;4985572;28;20527;-71
2023/08/20 08:01:48;;;;;;;12.10;9.10;;;24.20;99.90;;;;;;5002428;28;20459;-71
2023/08/20 08:04:15;;;;;;;11.50;8.73;;;24.20;99.90;;;;;;5001630;28;20474;-71
2023/08/20 08:06:41;;;;;;;9.00;8.10;;;24.20;99.90;;;;;;5000087;28;20424;-71
2023/08/20 08:09:40;;;;;;;11.13;8.40;;;24.20;99.90;;;;;;4985744;28;20598;-71
2023/08/20 08:12:06;;;;;;;9.87;8.37;;;24.20;99.90;;;;;;4990655;28;20432;-71
2023/08/20 08:14:32;;;;;;;12.60;8.93;;;24.20;99.90;;;;;;5003809;28;21301;-72
2023/08/20 08:17:01;;;;;;;9.47;8.57;;;24.30;99.90;;;;;;5001387;28;20499;-72
2023/08/20 08:19:26;;;;;;;9.57;8.30;;;24.30;99.90;;;;;;4950741;28;20443;-72
2023/08/20 08:21:52;;;;;;;10.43;8.27;;;24.30;99.90;;;;;;4999204;28;20408;-72
2023/08/20 08:24:18;;;;;;;8.30;7.50;;;24.30;99.90;;;;;;5002958;28;20486;-71
2023/08/20 08:26:46;;;;;;;8.80;8.00;;;24.30;99.90;;;;;;5002725;28;20446;-71
2023/08/20 08:29:15;;;;;;;9.23;8.40;;;24.30;99.90;;;;;;4984336;28;20413;-72
2023/08/20 08:31:43;;;;;;;8.87;8.13;;;24.30;99.90;;;;;;4983004;28;20421;-72
2023/08/20 08:34:09;;;;;;;12.30;9.13;;;24.40;99.90;;;;;;4983288;28;20455;-72
2023/08/20 08:36:37;;;;;;;9.43;8.53;;;24.40;99.90;;;;;;4982273;28;20798;-72
2023/08/20 08:39:03;;;;;;;9.70;8.47;;;24.40;99.90;;;;;;4992554;28;20432;-72
2023/08/20 08:41:32;;;;;;;9.53;8.37;;;24.40;99.90;;;;;;4973303;28;20190;-74
2023/08/20 08:44:02;;;;;;;8.90;8.10;;;24.40;99.90;;;;;;5001650;28;20484;-73
2023/08/20 08:46:30;;;;;;;9.73;8.93;;;24.40;99.90;;;;;;5001494;28;20412;-72
2023/08/20 08:48:59;;;;;;;8.70;7.90;;;24.40;99.90;;;;;;5000726;28;20566;-73
2023/08/20 08:51:28;;;;;;;8.53;7.70;;;24.40;99.90;;;;;;4968008;28;20543;-72
2023/08/20 08:53:56;;;;;;;9.87;8.73;;;24.50;99.90;;;;;;5000466;28;20459;-72
2023/08/20 08:56:25;;;;;;;11.23;9.00;;;24.50;99.90;;;;;;5001561;28;20478;-72
2023/08/20 08:58:54;;;;;;;10.17;8.90;;;24.50;99.90;;;;;;4984476;28;20586;-71
2023/08/20 09:01:24;;;;;;;8.73;7.83;;;24.50;99.90;;;;;;4999071;28;21053;-73
2023/08/20 09:03:53;;;;;;;9.03;8.30;;;24.50;99.90;;;;;;4999800;28;20566;-74
2023/08/20 09:06:18;;;;;;;9.73;8.90;;;24.60;99.90;;;;;;4998695;28;21230;-73
2023/08/20 09:08:46;;;;;;;8.57;7.70;;;24.60;99.90;;;;;;5001042;28;20240;-72
2023/08/20 09:11:14;;;;;;;9.40;8.53;;;24.60;99.90;;;;;;5003516;28;20468;-70
2023/08/20 09:13:43;;;;;;;9.97;7.93;;;24.60;99.90;;;;;;5003788;28;20820;-72
2023/08/20 09:16:13;;;;;;;9.70;8.27;;;24.70;99.90;;;;;;4972152;28;20923;-73
2023/08/20 09:18:44;;;;;;;8.50;7.70;;;24.70;99.90;;;;;;4990790;28;20525;-72
2023/08/20 09:21:12;;;;;;;8.67;7.87;;;24.70;99.90;;;;;;4990883;28;20437;-74
2023/08/20 09:23:39;;;;;;;9.43;8.57;;;24.80;99.90;;;;;;5000985;28;21156;-75
2023/08/20 09:26:07;;;;;;;8.20;7.43;;;24.80;99.90;;;;;;5000447;28;20472;-73
2023/08/20 09:28:44;;;;;;;9.10;8.20;;;24.80;99.90;;;;;;5001168;28;20449;-72
2023/08/20 09:31:13;;;;;;;8.80;7.90;;;24.90;99.90;;;;;;4977485;28;20463;-73
2023/08/20 09:33:52;;;;;;;8.83;7.93;;;24.90;99.90;;;;;;4965052;28;20978;-72
2023/08/20 09:36:19;;;;;;;8.90;7.13;;;24.90;99.90;;;;;;4965421;28;20429;-72
2023/08/20 09:38:53;;;;;;;9.10;8.30;;;24.90;99.90;;;;;;4974399;28;21009;-73
2023/08/20 09:41:22;;;;;;;8.33;7.53;;;25.00;99.90;;;;;;4984526;28;20455;-72
2023/08/20 09:43:53;;;;;;;8.03;7.20;;;25.00;99.90;;;;;;5000780;28;20467;-72
2023/08/20 09:46:20;;;;;;;8.80;7.30;;;25.00;99.90;;;;;;5001518;28;20443;-72
2023/08/20 09:48:50;;;;;;;7.90;7.20;;;25.10;99.90;;;;;;5000636;28;20443;-72
2023/08/20 09:51:24;;;;;;;8.27;7.47;;;25.10;99.90;;;;;;5002583;28;20498;-72
2023/08/20 09:54:03;;;;;;;8.70;7.90;;;25.10;99.90;;;;;;5001000;28;20509;-71
2023/08/20 09:56:31;;;;;;;8.07;7.27;;;25.20;99.90;;;;;;5000743;28;20417;-72
2023/08/20 09:59:00;;;;;;;7.23;6.63;;;25.20;99.90;;;;;;5002075;28;20857;-72
2023/08/20 10:01:30;;;;;;;8.63;7.40;;;25.20;99.90;;;;;;5000599;28;20432;-72
2023/08/20 10:04:01;;;;;;;8.13;7.33;;;25.20;99.90;;;;;;4999682;28;20484;-72
2023/08/20 10:06:29;;;;;;;8.47;7.67;;;25.30;99.90;;;;;;4964664;28;20483;-72
2023/08/20 10:08:56;;;;;;;8.93;7.87;;;25.30;99.90;;;;;;4972126;28;20953;-73
2023/08/20 10:11:22;;;;;;;8.40;7.67;;;25.40;99.90;;;;;;4997781;28;20925;-71
2023/08/20 10:13:49;;;;;;;7.43;6.83;;;25.40;99.90;;;;;;5002044;28;20456;-71
2023/08/20 10:16:21;;;;;;;7.60;7.00;;;25.40;99.70;;;;;;5002027;28;20216;-71
2023/08/20 10:18:47;;;;;;;8.47;7.67;;;25.40;99.60;;;;;;5002748;28;20436;-72
2023/08/20 10:21:14;;;;;;;8.23;7.53;;;25.50;99.60;;;;;;5001840;28;21280;-72
2023/08/20 10:23:49;;;;;;;8.73;7.83;;;25.50;99.50;;;;;;4984373;28;20845;-72
2023/08/20 10:26:16;;;;;;;8.60;7.90;;;25.60;99.60;;;;;;5002117;28;20434;-73
2023/08/20 10:28:47;;;;;;;9.10;8.30;;;25.60;99.50;;;;;;5000618;28;21084;-72
2023/08/20 10:31:16;;;;;;;10.70;8.13;;;25.70;99.40;;;;;;5001711;28;20404;-72
2023/08/20 10:33:56;;;;;;;10.37;7.80;;;25.70;99.40;;;;;;4999046;28;20461;-72
2023/08/20 10:36:30;;;;;;;9.20;8.37;;;25.70;99.30;;;;;;4994747;23;20572;-72
2023/08/20 10:39:05;;;;;;;9.30;8.50;;;25.80;99.20;;;;;;4979443;28;20504;-75
2023/08/20 10:41:33;;;;;;;8.70;7.83;;;25.80;99.20;;;;;;4983986;28;20435;-75
2023/08/20 10:44:02;;;;;;;9.10;8.40;;;25.80;99.20;;;;;;5000619;28;20507;-75
2023/08/20 10:46:36;;;;;;;9.60;8.90;;;25.90;99.20;;;;;;4983611;28;20559;-73
2023/08/20 10:49:03;;;;;;;9.20;8.30;;;25.90;99.20;;;;;;4985997;28;20432;-73
2023/08/20 10:51:33;;;;;;;9.90;9.10;;;25.90;99.10;;;;;;5003337;28;20877;-73
2023/08/20 10:54:06;;;;;;;10.30;9.33;;;25.90;99.00;;;;;;4985762;28;20501;-73
2023/08/20 10:56:41;;;;;;;10.40;9.50;;;26.00;99.00;;;;;;5003958;28;20423;-73
2023/08/20 10:59:11;;;;;;;10.90;9.80;;;26.00;98.90;;;;;;5002181;28;20885;-73
2023/08/20 11:01:38;;;;;;;11.40;10.47;;;26.00;99.00;;;;;;4986050;28;20770;-73
2023/08/20 11:04:08;;;;;;;11.90;10.67;;;26.10;98.90;;;;;;4969366;28;20475;-73
2023/08/20 11:06:39;;;;;;;11.87;10.60;;;26.10;98.90;;;;;;5001934;28;20464;-72
2023/08/20 11:09:05;;;;;;;10.97;9.97;;;26.10;98.80;;;;;;4984639;28;20947;-72
2023/08/20 11:11:32;;;;;;;11.90;10.90;;;26.10;98.70;;;;;;4983222;28;20881;-72
2023/08/20 11:14:15;;;;;;;11.40;10.50;;;26.20;98.70;;;;;;4982664;28;20962;-72
2023/08/20 11:16:45;;;;;;;10.83;9.93;;;26.20;98.80;;;;;;4966764;28;20889;-71
2023/08/20 11:19:14;;;;;;;11.07;10.13;;;26.20;98.70;;;;;;4982607;28;20980;-72
2023/08/20 11:21:43;;;;;;;13.80;10.77;;;26.30;98.70;;;;;;5000500;28;20416;-74
2023/08/20 11:24:12;;;;;;;11.60;10.60;;;26.30;98.60;;;;;;4966600;28;20475;-72
2023/08/20 11:26:44;;;;;;;11.90;10.90;;;26.30;98.50;;;;;;5039613;23;20504;-74
2023/08/20 11:29:22;;;;;;;11.27;10.27;;;26.30;98.50;;;;;;4968573;28;21044;-76
2023/08/20 11:31:52;;;;;;;11.53;10.47;;;26.30;98.40;;;;;;4984851;28;20389;-74
2023/08/20 11:34:21;;;;;;;13.23;12.13;;;26.40;98.40;;;;;;4986152;28;20433;-75
2023/08/20 11:36:49;;;;;;;11.87;10.87;;;26.40;98.40;;;;;;4970237;28;20425;-75
2023/08/20 11:39:15;;;;;;;12.93;11.73;;;26.40;98.30;;;;;;4969876;28;21006;-75
2023/08/20 11:41:47;;;;;;;12.17;11.13;;;26.40;98.20;;;;;;4954129;28;20453;-75
2023/08/20 11:44:21;;;;;;;11.93;11.03;;;26.40;98.10;;;;;;4986068;28;20515;-76
2023/08/20 11:46:48;;;;;;;11.97;10.97;;;26.50;98.10;;;;;;4969096;28;20425;-75
2023/08/20 11:49:16;;;;;;;12.10;11.20;;;26.50;98.00;;;;;;4984605;28;20507;-75
2023/08/20 11:51:52;;;;;;;11.80;10.83;;;26.50;97.90;;;;;;4961787;28;20527;-75
2023/08/20 11:54:18;;;;;;;13.00;11.97;;;26.60;97.90;;;;;;4968179;28;20517;-75
2023/08/20 11:56:51;;;;;;;12.07;10.80;;;26.60;97.80;;;;;;4984511;28;20456;-75
2023/08/20 11:59:19;;;;;;;11.27;10.40;;;26.60;97.70;;;;;;4985527;28;20428;-74
2023/08/20 12:02:02;;;;;;;11.30;10.30;;;26.60;97.60;;;;;;4968188;28;20446;-74
2023/08/20 12:04:30;;;;;;;11.60;10.70;;;26.70;97.90;;;;;;4977824;28;20470;-74
2023/08/20 12:07:14;;;;;;;11.70;10.80;;;26.70;97.50;;;;;;4926163;28;20987;-75
2023/08/20 12:09:40;;;;;;;11.20;10.30;;;26.70;97.40;;;;;;4962939;28;20424;-74
2023/08/20 12:12:08;;;;;;;11.50;10.57;;;26.80;97.30;;;;;;4952419;28;20429;-75
2023/08/20 12:14:39;;;;;;;11.13;10.23;;;26.80;97.30;;;;;;4968072;28;20493;-75
2023/08/20 12:17:14;;;;;;;10.50;9.70;;;26.80;97.20;;;;;;4949266;28;21223;-75
2023/08/20 12:19:40;;;;;;;11.30;10.50;;;26.80;97.10;;;;;;4948416;28;20515;-75
2023/08/20 12:22:08;;;;;;;10.50;9.70;;;26.80;97.10;;;;;;4983870;28;20548;-75
2023/08/20 12:24:34;;;;;;;10.57;9.50;;;26.90;97.10;;;;;;4962918;28;20521;-75
2023/08/20 12:27:03;;;;;;;11.17;10.27;;;26.90;97.00;;;;;;4932551;28;20473;-76
2023/08/20 12:29:29;;;;;;;10.10;9.30;;;27.00;96.90;;;;;;4948872;28;20508;-75
2023/08/20 12:32:01;;;;;;;9.73;9.00;;;27.00;96.90;;;;;;4951609;28;20452;-74
2023/08/20 12:34:31;;;;;;;10.77;10.00;;;27.00;97.00;;;;;;4952157;28;20449;-74
2023/08/20 12:37:02;;;;;;;10.00;9.30;;;27.00;97.00;;;;;;4967638;28;20429;-75
2023/08/20 12:39:33;;;;;;;10.90;10.10;;;27.00;96.90;;;;;;4984460;28;20448;-75
2023/08/20 12:42:02;;;;;;;9.70;8.97;;;27.10;96.80;;;;;;4965549;28;20982;-75
2023/08/20 12:44:28;;;;;;;10.70;9.77;;;27.10;96.80;;;;;;4963502;28;20462;-75
2023/08/20 12:46:59;;;;;;;10.13;9.23;;;27.10;97.20;;;;;;4947865;28;21090;-74
2023/08/20 12:49:29;;;;;;;10.70;9.80;;;27.10;96.80;;;;;;4955421;28;20456;-75
2023/08/20 12:51:58;;;;;;;9.50;8.80;;;27.10;96.80;;;;;;4948854;28;20514;-76